Latest Weather Observations for Narrandera Airport

IDN60801

Issued at 12:23 pm EDT Thursday 20 January 2022 (issued every 10 minutes, with the page automatically refreshed every 10 minutes)

About weather observations | Map of weather stations | Latest weather observations for NSW | Other Formats
Station Details ID: 074148 Name: NARRANDERA AIRPORT AWS Lat: -34.70 Lon: 146.51 Height: 145.0 m
Data from the previous 72 hours. | See also: Recent months at Narrandera Airport
Date/Time
EDT
Temp
°C
App
Temp
°C
Dew
Point
°C
Rel
Hum
%
Delta-T
°C
Wind Press
QNH
hPa
Press
MSL
hPa
Rain since
9am
mm
Dir  Spd
km/h
Gust
km/h
Spd
kts
Gust
kts
20/12:19pm 25.4 19.5 10.4 39 8.4 E 32 50 17 27 1025.7 1024.9 0.0
20/12:00pm 25.3 20.0 11.1 41 8.0 E 30 44 16 24 1026.0 1025.3 0.0
20/11:30am 25.1 19.9 10.2 39 8.3 ENE 28 48 15 26 1026.3 1025.6 0.0
20/11:11am 24.5 18.4 9.6 39 8.2 E 32 52 17 28 1026.4 1025.7 0.0
20/11:00am 24.4 18.3 9.6 39 8.1 E 32 44 17 24 1026.4 1025.7 0.0
20/10:30am 23.7 18.9 10.4 43 7.4 ESE 26 41 14 22 1026.5 1025.8 0.0
20/10:00am 21.7 17.6 10.2 48 6.3 ESE 22 30 12 16 1026.7 1026.0 0.0
20/09:30am 21.6 18.0 10.7 50 6.0 E 20 28 11 15 1026.7 1026.0 0.0
20/09:00am 20.4 16.9 10.2 52 5.5 E 19 28 10 15 1026.7 1026.0 0.0
20/08:30am 19.8 16.7 10.2 54 5.2 ESE 17 24 9 13 1026.6 1025.9 0.0
20/08:00am 18.3 16.2 9.6 57 4.6 SE 11 15 6 8 1026.1 1025.4 0.0
20/07:30am 16.7 16.1 10.3 66 3.4 SSE 4 9 2 5 1025.6 1024.8 0.0
20/07:00am 14.7 15.0 10.9 78 2.0 CALM 0 0 0 0 1025.3 1024.5 0.0
20/06:30am 13.4 11.8 10.2 81 1.7 SE 9 9 5 5 1025.0 1024.2 0.0
20/06:00am 13.6 12.5 9.8 78 2.0 SE 6 7 3 4 1024.8 1024.0 0.0
20/05:30am 14.1 12.5 10.1 77 2.1 ESE 9 11 5 6 1024.5 1023.7 0.0
20/05:00am 14.1 11.9 9.5 74 2.4 ESE 11 15 6 8 1023.9 1023.1 0.0
20/04:30am 13.4 12.2 9.6 78 2.0 SE 6 7 3 4 1023.8 1023.0 0.0
20/04:00am 14.2 12.0 9.4 73 2.5 E 11 11 6 6 1023.8 1023.0 0.0
20/03:30am 14.3 12.1 9.3 72 2.6 ESE 11 13 6 7 1023.7 1022.9 0.0
20/03:00am 15.3 12.9 8.8 65 3.3 E 11 17 6 9 1024.0 1023.2 0.0
20/02:30am 15.7 12.6 8.9 64 3.5 E 15 20 8 11 1024.1 1023.3 0.0
20/02:00am 16.2 13.4 8.7 61 3.8 E 13 19 7 10 1024.1 1023.3 0.0
20/01:30am 17.0 14.2 8.7 58 4.3 E 13 19 7 10 1024.2 1023.4 0.0
20/01:00am 18.3 14.0 8.0 51 5.3 E 20 28 11 15 1024.0 1023.2 0.0
20/12:30am 18.8 13.8 8.2 50 5.5 E 24 32 13 17 1024.0 1023.2 0.0
20/12:00am 19.3 14.9 8.9 51 5.5 E 22 30 12 16 1023.9 1023.1 0.0
 
Date/Time
EDT
Temp
°C
App
Temp
°C
Dew
Point
°C
Rel
Hum
%
Delta-T
°C
Wind Press
QNH
hPa
Press
MSL
hPa
Rain since
9am
mm
Dir  Spd
km/h
Gust
km/h
Spd
kts
Gust
kts
19/11:30pm 20.0 14.2 9.3 50 5.7 ENE 30 39 16 21 1023.5 1022.7 0.0
19/11:00pm 20.5 16.1 10.3 52 5.5 ENE 24 33 13 18 1023.3 1022.5 0.0
19/10:30pm 21.0 16.7 10.8 52 5.6 E 24 33 13 18 1022.8 1022.0 0.0
19/10:00pm 21.6 18.2 11.3 52 5.7 ENE 20 30 11 16 1022.2 1021.4 0.0
19/09:30pm 22.3 19.0 11.7 51 6.0 ENE 20 30 11 16 1021.7 1020.9 0.0
19/09:00pm 22.9 19.7 11.9 50 6.2 ENE 20 30 11 16 1021.1 1020.3 0.0
19/08:30pm 24.2 19.7 11.5 45 7.2 ENE 26 37 14 20 1020.4 1019.6 0.0
19/08:00pm 25.6 20.8 11.7 42 7.9 ENE 28 35 15 19 1019.7 1018.8 0.0
19/07:30pm 26.2 20.9 11.2 39 8.5 ENE 30 43 16 23 1019.2 1018.4 0.0
19/07:00pm 28.0 23.2 11.5 35 9.5 ENE 28 41 15 22 1018.5 1017.7 0.0
19/06:30pm 28.6 24.5 11.6 34 9.9 ENE 24 32 13 17 1018.2 1017.4 0.0
19/06:00pm 28.6 24.7 12.1 36 9.6 ENE 24 39 13 21 1018.0 1017.2 0.0
19/05:30pm 29.1 25.5 12.9 37 9.6 E 24 32 13 17 1018.0 1017.2 0.0
19/05:00pm 28.4 24.2 12.3 37 9.4 E 26 39 14 21 1018.1 1017.3 0.0
19/04:30pm 28.8 25.0 13.5 39 9.2 E 26 37 14 20 1018.0 1017.2 0.0
19/04:00pm 28.3 24.1 13.4 40 8.9 E 28 39 15 21 1018.2 1017.4 0.0
19/03:30pm 28.7 26.2 14.1 40 8.8 E 20 28 11 15 1018.2 1017.4 0.0
19/03:00pm 28.2 25.2 13.7 41 8.7 E 22 32 12 17 1018.3 1017.5 0.0
19/02:30pm 29.0 25.7 14.0 39 9.1 E 24 37 13 20 1018.5 1017.7 0.0
19/02:00pm 27.9 23.6 13.1 40 8.7 ENE 28 41 15 22 1018.5 1017.7 0.0
19/01:30pm 28.2 24.6 14.1 42 8.5 ENE 26 39 14 21 1018.5 1017.7 0.0
19/01:00pm 27.7 24.4 14.0 43 8.2 ENE 24 37 13 20 1018.7 1017.9 0.0
19/12:30pm 27.1 23.3 14.8 47 7.5 E 28 41 15 22 1018.9 1018.1 0.0
19/12:00pm 26.4 22.9 14.5 48 7.1 ENE 26 35 14 19 1018.9 1018.1 0.0
19/11:30am 25.8 21.5 14.3 49 6.9 ENE 30 39 16 21 1018.8 1018.0 0.0
19/11:00am 25.3 20.9 14.1 50 6.7 ENE 30 39 16 21 1018.7 1017.9 0.0
19/10:30am 24.3 19.5 14.1 53 6.0 E 32 41 17 22 1018.6 1017.8 0.0
19/10:00am 25.1 20.7 15.1 53 6.0 E 32 43 17 23 1018.4 1017.6 0.0
19/09:30am 22.5 17.9 13.6 57 5.2 E 30 43 16 23 1018.1 1017.3 0.0
19/09:00am 23.0 19.1 14.3 58 5.1 E 28 43 15 23 1017.8 1017.0 0.0
19/08:30am 21.2 16.8 14.1 64 4.2 E 30 35 16 19 1017.5 1016.7 0.0
19/08:00am 20.7 17.1 14.1 66 3.8 E 26 39 14 21 1017.0 1016.2 0.0
19/07:30am 20.4 17.7 14.5 69 3.5 E 22 33 12 18 1016.6 1015.8 0.0
19/07:00am 20.2 17.0 14.3 69 3.4 E 24 32 13 17 1016.0 1015.2 0.0
19/06:30am 20.2 17.5 14.6 70 3.3 E 22 33 12 18 1015.5 1014.7 0.0
19/06:00am 20.4 16.1 14.3 68 3.6 E 30 39 16 21 1015.1 1014.3 0.0
19/05:30am 20.6 18.5 14.7 69 3.5 E 19 30 10 16 1014.6 1013.8 0.0
19/05:00am 21.0 19.0 15.5 71 3.3 E 20 26 11 14 1013.9 1013.1 0.0
19/04:30am 21.1 19.1 15.6 71 3.3 E 20 26 11 14 1013.9 1013.1 0.0
19/04:00am 21.0 19.8 16.0 73 3.0 E 17 24 9 13 1013.5 1012.6 0.0
19/03:30am 21.5 20.3 16.0 71 3.3 E 17 24 9 13 1013.3 1012.4 0.0
19/03:00am 21.5 20.5 16.7 74 2.9 E 17 22 9 12 1013.0 1012.1 0.0
19/02:30am 21.8 20.8 16.7 73 3.1 E 17 20 9 11 1012.8 1011.9 0.0
19/02:00am 22.2 21.8 17.1 73 3.1 E 15 22 8 12 1013.1 1012.2 0.0
19/01:30am 22.9 21.9 17.6 72 3.3 E 19 26 10 14 1012.9 1012.0 0.0
19/01:00am 23.4 22.3 17.8 71 3.5 E 20 28 11 15 1012.5 1011.6 0.0
19/12:30am 23.4 21.7 12.4 50 6.3 S 13 20 7 11 1012.6 1011.7 0.0
19/12:00am 23.5 21.7 12.2 49 6.5 S 13 19 7 10 1012.6 1011.7 0.0
 
Date/Time
EDT
Temp
°C
App
Temp
°C
Dew
Point
°C
Rel
Hum
%
Delta-T
°C
Wind Press
QNH
hPa
Press
MSL
hPa
Rain since
9am
mm
Dir  Spd
km/h
Gust
km/h
Spd
kts
Gust
kts
18/11:30pm 23.8 21.8 12.8 50 6.4 SSW 15 19 8 10 1012.4 1011.5 0.0
18/11:00pm 23.8 22.7 14.2 55 5.7 SSW 13 17 7 9 1012.0 1011.2 0.0
18/10:30pm 24.7 24.1 15.6 57 5.5 SW 13 17 7 9 1011.8 1011.0 0.0
18/10:00pm 24.4 25.8 17.9 67 4.1 N 7 7 4 4 1011.6 1010.8 0.0
18/09:30pm 25.0 26.4 16.4 59 5.3 WSW 4 7 2 4 1011.4 1010.6 0.0
18/09:00pm 25.2 27.6 17.1 60 5.1 CALM 0 0 0 0 1011.1 1010.3 0.0
18/08:30pm 26.0 26.7 16.0 54 6.2 W 7 9 4 5 1011.2 1010.4 0.0
18/08:00pm 26.7 27.0 16.0 52 6.6 W 9 9 5 5 1010.7 1009.9 0.0
18/07:30pm 27.2 27.8 16.8 53 6.5 WNW 9 11 5 6 1010.4 1009.6 0.0
18/07:00pm 27.9 28.6 16.2 49 7.3 WNW 7 13 4 7 1009.8 1009.0 0.0
18/06:30pm 28.3 28.4 15.6 46 7.8 WNW 9 11 5 6 1010.1 1009.3 0.0
18/06:00pm 28.7 28.4 14.5 42 8.6 WNW 9 13 5 7 1010.0 1009.2 0.0
18/05:30pm 29.1 28.7 15.2 42 8.5 WNW 11 15 6 8 1010.1 1009.3 0.0
18/05:00pm 29.5 29.3 13.7 38 9.5 W 7 13 4 7 1010.3 1009.5 0.0
18/04:30pm 29.6 30.0 13.8 38 9.5 W 4 9 2 5 1010.4 1009.6 0.0
18/04:00pm 30.2 30.4 14.3 38 9.7 SW 6 13 3 7 1010.8 1010.0 0.0
18/03:30pm 29.4 28.1 14.8 41 8.9 W 15 17 8 9 1011.0 1010.2 0.0
18/03:00pm 29.3 28.2 14.3 40 9.1 SW 13 20 7 11 1011.2 1010.4 0.0
18/02:30pm 29.8 29.7 15.9 43 8.7 WNW 11 20 6 11 1011.4 1010.6 0.0
18/02:00pm 28.8 28.7 16.0 45 8.0 W 11 17 6 9 1011.8 1011.0 0.0
18/01:30pm 28.1 28.3 15.7 46 7.7 SW 9 19 5 10 1012.4 1011.5 0.0
18/01:00pm 27.9 27.6 16.5 50 7.1 NW 13 22 7 12 1012.6 1011.7 0.0
18/12:30pm 27.7 27.8 16.6 50 6.9 NW 11 20 6 11 1012.9 1012.0 0.0
18/12:00pm 26.7 25.7 15.7 51 6.8 NNW 15 22 8 12 1012.9 1012.0 0.0
18/11:30am 26.3 25.6 16.5 54 6.1 NNW 15 20 8 11 1013.2 1012.3 0.0
18/11:00am 24.8 24.7 17.0 62 4.9 NW 13 17 7 9 1013.5 1012.6 0.0
18/10:30am 24.7 24.8 17.4 64 4.6 NNW 13 15 7 8 1013.2 1012.3 0.0
18/10:00am 24.2 24.9 17.9 68 4.0 NNW 11 15 6 8 1013.0 1012.1 0.0
18/09:30am 23.5 25.1 20.0 81 2.3 NNW 11 15 6 8 1012.8 1011.9 0.0
18/09:00am 22.7 25.3 20.0 85 1.7 NNE 6 9 3 5 1012.5 1011.6 0.0
18/08:30am 22.2 25.5 19.9 87 1.5 N 2 6 1 3 1012.4 1011.5 0.0
18/08:00am 21.8 24.2 19.7 88 1.3 NNE 6 9 3 5 1012.0 1011.2 0.0
18/07:30am 21.6 25.0 19.3 87 1.5 CALM 0 0 0 0 1011.7 1010.9 0.0
18/07:00am 21.3 24.0 19.4 89 1.2 ESE 4 7 2 4 1011.4 1010.6 0.0
18/06:30am 21.4 23.6 19.5 89 1.2 ENE 7 9 4 5 1011.3 1010.5 0.0
18/06:00am 21.6 23.8 19.5 88 1.3 ENE 7 9 4 5 1011.1 1010.3 0.0
18/05:30am 21.7 24.3 20.0 90 1.1 S 6 7 3 4 1010.8 1010.0 0.0
18/05:00am 21.8 25.1 19.9 89 1.2 NE 2 6 1 3 1010.4 1009.6 0.0
18/04:30am 22.1 25.6 20.4 90 1.1 SSW 2 7 1 4 1010.3 1009.5 0.0
18/04:00am 21.9 24.7 20.5 92 0.9 SE 6 7 3 4 1010.1 1009.3 0.0
18/03:30am 22.0 24.8 20.5 91 1.0 SSE 6 9 3 5 1010.3 1009.5 0.0
18/03:00am 22.2 26.1 20.3 89 1.2 CALM 0 0 0 0 1010.7 1009.9 0.0
18/02:30am 22.3 26.2 20.4 89 1.2 CALM 0 0 0 0 1011.1 1010.3 0.0
18/02:00am 22.6 26.4 20.1 86 1.6 CALM 0 0 0 0 1011.5 1010.7 0.0
18/01:30am 22.5 24.9 19.7 84 1.8 SSE 6 7 3 4 1011.7 1010.9 0.0
18/01:00am 23.0 25.6 19.2 79 2.4 WSW 4 7 2 4 1011.9 1011.1 0.0
18/12:30am 23.2 25.5 19.4 79 2.4 SW 6 9 3 5 1012.1 1011.3 0.0
18/12:00am 23.2 26.0 19.6 80 2.3 ENE 4 9 2 5 1012.4 1011.5 0.0
 
Date/Time
EDT
Temp
°C
App
Temp
°C
Dew
Point
°C
Rel
Hum
%
Delta-T
°C
Wind Press
QNH
hPa
Press
MSL
hPa
Rain since
9am
mm
Dir  Spd
km/h
Gust
km/h
Spd
kts
Gust
kts
17/11:30pm 23.3 26.5 19.7 80 2.3 ESE 2 7 1 4 1012.5 1011.6 0.0
17/11:00pm 23.6 27.0 19.3 77 2.8 CALM 0 0 0 0 1012.8 1011.9 0.0
17/10:30pm 23.6 25.9 19.5 78 2.6 NE 6 7 3 4 1012.7 1011.8 0.0
17/10:00pm 23.9 25.9 19.2 75 3.0 ENE 7 9 4 5 1012.5 1011.6 0.0
17/09:30pm 24.1 27.4 19.2 74 3.1 CALM 0 7 0 4 1012.5 1011.6 0.0
17/09:00pm 24.3 27.6 19.1 73 3.3 CALM 0 0 0 0 1012.1 1011.3 0.0
17/08:30pm 24.5 25.7 18.2 68 4.0 WNW 9 11 5 6 1012.2 1011.4 0.0
17/08:00pm 24.8 26.4 19.2 71 3.6 WNW 9 11 5 6 1012.2 1011.4 0.0
17/07:30pm 25.4 27.6 19.1 68 4.1 NNW 6 7 3 4 1011.6 1010.8 0.0
17/07:00pm 25.6 27.4 18.8 66 4.4 NW 7 7 4 4 1011.2 1010.4 0.0
17/06:30pm 25.9 28.7 18.8 65 4.6 SSW 2 6 1 3 1011.0 1010.2 0.0
17/06:00pm 26.0 28.4 17.9 61 5.1 SE 2 6 1 3 1010.5 1009.7 0.0
17/05:30pm 26.3 28.1 18.4 61 5.0 ESE 6 7 3 4 1010.4 1009.6 0.0
17/05:00pm 26.6 28.5 18.5 61 5.2 ESE 6 9 3 5 1010.5 1009.7 0.0
17/04:30pm 26.6 26.9 17.9 59 5.5 SE 13 15 7 8 1010.6 1009.8 0.0
17/04:00pm 26.4 27.1 18.0 60 5.3 SE 11 15 6 8 1010.9 1010.1 0.0
17/03:30pm 26.2 26.4 17.6 59 5.4 SSE 13 17 7 9 1010.9 1010.1 0.0
17/03:00pm 26.6 26.1 16.8 55 6.1 S 15 22 8 12 1010.7 1009.9 0.0
17/02:30pm 27.9 27.1 17.1 51 6.8 SSW 17 24 9 13 1010.8 1010.0 0.0
17/02:00pm 28.7 27.1 16.6 48 7.6 SSW 20 30 11 16 1010.8 1010.0 0.0
17/01:30pm 29.1 27.1 15.6 44 8.4 SSW 20 30 11 16 1011.1 1010.3 0.0
17/01:00pm 29.3 28.3 16.5 46 8.0 SSW 17 26 9 14 1011.3 1010.5 0.0
17/12:30pm 29.7 27.5 15.0 40 9.0 SW 20 35 11 19 1011.4 1010.6 0.0

Other formats

Comma delimited format used in spreadsheet applications
http://www.bom.gov.au/fwo/IDN60801/IDN60801.95706.axf

JavaScript Object Notation format (JSON) in row-major order
http://www.bom.gov.au/fwo/IDN60801/IDN60801.95706.json

Data quality

Most of these data are generated automatically and are frequently updated. Quality checks on data are not normally performed. It is possible for incorrect values to appear. Refer to information at About Latest Weather Observations and please check the disclaimer before using these data.